Time;durP1;ratioP1;P1;durP2;ratioP2;P2;SDS_P1;SDS_P2;PMS_P1;PMS_P2;Temp;Humidity;BMP_temperature;BMP_pressure;BME280_temperature;BME280_humidity;BME280_pressure;Samples;Min_cycle;Max_cycle;Signal;HPM_P1;HPM_P2
2022/08/20 00:00:26;;;;;;;2.35;1.92;;;;;;;18.31;94.52;100168.86;1756709;79;21084;-68
2022/08/20 00:03:00;;;;;;;2.85;1.45;;;;;;;18.27;94.33;100171.22;1773004;79;21040;-68
2022/08/20 00:05:36;;;;;;;1.20;1.20;;;;;;;18.22;94.50;100171.16;1750383;79;21161;-68
2022/08/20 00:08:05;;;;;;;2.52;2.20;;;;;;;18.17;94.67;100177.27;1776898;79;21010;-69
2022/08/20 00:10:34;;;;;;;2.15;1.95;;;;;;;18.14;94.88;100175.58;1777749;79;21017;-68
2022/08/20 00:13:02;;;;;;;1.55;1.45;;;;;;;18.11;94.82;100172.03;1766189;79;20965;-68
2022/08/20 00:15:32;;;;;;;1.25;1.17;;;;;;;18.07;94.92;100176.55;1773001;79;21156;-68
2022/08/20 00:17:59;;;;;;;2.52;1.25;;;;;;;18.05;95.34;100177.87;1776194;79;20974;-68
2022/08/20 00:20:30;;;;;;;1.85;1.70;;;;;;;18.01;95.43;100171.33;1767788;79;21053;-69
2022/08/20 00:22:57;;;;;;;1.62;1.52;;;;;;;17.95;95.67;100179.01;1776935;79;21045;-67
2022/08/20 00:25:25;;;;;;;2.25;1.50;;;;;;;17.87;96.25;100173.47;1774001;79;21490;-71
2022/08/20 00:27:52;;;;;;;1.98;1.57;;;;;;;17.82;96.43;100174.69;1778832;79;21022;-69
2022/08/20 00:30:19;;;;;;;;;;;;;;;17.77;96.79;100169.22;1779513;79;21509;-68
2022/08/20 00:32:55;;;;;;;1.90;1.80;;;;;;;17.74;97.43;100177.23;1764258;79;20141;-68
2022/08/20 00:35:24;;;;;;;1.60;1.32;;;;;;;17.67;97.88;100176.58;1738606;81;20985;-67
2022/08/20 00:37:52;;;;;;;1.95;1.85;;;;;;;17.64;98.03;100184.59;1729192;81;21446;-68
2022/08/20 00:40:24;;;;;;;1.70;1.60;;;;;;;17.62;98.50;100188.05;1742341;81;21121;-68
2022/08/20 00:42:56;;;;;;;1.75;1.65;;;;;;;17.58;98.87;100190.94;1747497;81;21029;-67
2022/08/20 00:45:26;;;;;;;2.50;1.65;;;;;;;17.55;98.65;100190.06;1735686;81;21485;-68
2022/08/20 00:47:54;;;;;;;2.25;1.60;;;;;;;17.56;98.80;100189.02;1737748;81;21022;-67
2022/08/20 00:50:32;;;;;;;1.12;1.10;;;;;;;17.57;99.07;100191.98;1734780;81;21034;-67
2022/08/20 00:53:01;;;;;;;2.22;1.50;;;;;;;17.59;98.98;100195.26;1739967;81;21034;-68
2022/08/20 00:55:29;;;;;;;2.70;1.70;;;;;;;17.59;99.00;100203.34;1712691;82;20993;-68
2022/08/20 00:58:01;;;;;;;2.00;1.80;;;;;;;17.57;99.43;100201.42;1740554;81;20981;-68
2022/08/20 01:00:33;;;;;;;1.72;1.62;;;;;;;17.55;99.90;100204.88;1708286;81;21092;-68
2022/08/20 01:03:00;;;;;;;2.90;1.60;;;;;;;17.58;99.80;100203.61;1728339;81;21051;-68
2022/08/20 01:05:29;;;;;;;2.15;1.15;;;;;;;17.58;99.69;100199.03;1739048;81;21100;-69
2022/08/20 01:07:56;;;;;;;2.47;2.27;;;;;;;17.60;99.58;100195.56;1725666;81;20978;-67
2022/08/20 01:10:26;;;;;;;1.65;1.55;;;;;;;17.62;99.64;100193.98;1746018;81;21014;-67
2022/08/20 01:12:57;;;;;;;2.92;1.35;;;;;;;17.62;99.54;100192.09;1739370;81;21522;-67
2022/08/20 01:15:29;;;;;;;1.40;0.93;;;;;;;17.65;99.62;100190.28;1734605;81;21537;-69
2022/08/20 01:17:58;;;;;;;1.72;1.67;;;;;;;17.69;99.22;100183.36;1706598;82;21009;-67
2022/08/20 01:20:36;;;;;;;2.62;1.95;;;;;;;17.73;98.75;100185.58;1741060;81;21077;-67
2022/08/20 01:24:00;;;;;;;2.17;1.75;;;;;;;17.73;98.52;100181.00;1732775;81;21037;-68
2022/08/20 01:26:37;;;;;;;1.85;1.72;;;;;;;17.75;98.68;100175.38;1725974;81;21093;-69
2022/08/20 01:29:19;;;;;;;11.30;1.85;;;;;;;17.71;98.21;100181.77;1739690;81;20998;-68
2022/08/20 01:31:45;;;;;;;2.02;1.87;;;;;;;17.68;98.19;100180.36;1743173;81;21161;-68
2022/08/20 01:34:14;;;;;;;;;;;;;;;17.66;98.56;100183.02;1752334;81;20985;-69
2022/08/20 01:36:47;;;;;;;7.40;1.87;;;;;;;17.69;98.88;100184.70;1743492;81;20165;-67
2022/08/20 01:39:21;;;;;;;2.40;2.17;;;;;;;17.65;98.72;100178.16;1738187;81;20985;-68
2022/08/20 01:41:55;;;;;;;1.82;1.72;;;;;;;17.64;98.83;100169.77;1701103;82;21498;-68
2022/08/20 01:44:22;;;;;;;1.70;1.57;;;;;;;17.66;98.87;100168.19;1728008;81;21049;-68
2022/08/20 01:46:54;;;;;;;1.82;1.72;;;;;;;17.68;98.91;100163.38;1735917;81;21049;-69
2022/08/20 01:49:30;;;;;;;3.35;2.10;;;;;;;17.70;99.02;100158.02;1708574;82;21593;-69
2022/08/20 01:52:00;;;;;;;1.60;1.50;;;;;;;17.70;98.60;100156.67;1719737;81;21506;-67
2022/08/20 01:54:27;;;;;;;4.25;2.58;;;;;;;17.66;98.47;100160.91;1741816;81;21044;-69
2022/08/20 01:57:08;;;;;;;2.00;1.90;;;;;;;17.62;98.60;100154.91;1732603;81;21032;-69
2022/08/20 01:59:34;;;;;;;3.55;1.87;;;;;;;17.57;98.87;100151.56;1727697;81;21018;-67
2022/08/20 02:02:01;;;;;;;;;;;;;;;17.50;99.22;100158.45;1748442;81;21537;-68
2022/08/20 02:04:28;;;;;;;2.10;2.00;;;;;;;17.41;99.44;100161.77;1740607;81;20171;-69
2022/08/20 02:06:58;;;;;;;3.35;2.17;;;;;;;17.24;100.00;100163.83;1727880;81;21132;-69
2022/08/20 02:09:28;;;;;;;1.82;1.72;;;;;;;17.17;100.00;100165.83;1682076;82;21005;-69
2022/08/20 02:11:56;;;;;;;4.10;2.20;;;;;;;17.13;100.00;100170.05;1733330;81;21005;-69
2022/08/20 02:14:24;;;;;;;2.40;2.00;;;;;;;17.12;100.00;100171.94;1754481;80;21479;-68
2022/08/20 02:16:50;;;;;;;2.15;2.00;;;;;;;17.13;100.00;100172.20;1757076;81;21025;-67
2022/08/20 02:19:21;;;;;;;1.60;1.50;;;;;;;17.18;100.00;100172.02;1753744;81;21006;-68
2022/08/20 02:21:55;;;;;;;1.67;1.57;;;;;;;17.21;100.00;100166.98;1743687;81;21109;-69
2022/08/20 02:24:22;;;;;;;2.75;2.02;;;;;;;17.24;100.00;100167.88;1753475;81;20951;-68
2022/08/20 02:26:50;;;;;;;2.45;2.35;;;;;;;17.27;100.00;100178.19;1702311;83;21041;-69
2022/08/20 02:29:17;;;;;;;4.37;1.90;;;;;;;17.32;100.00;100178.81;1752939;81;21447;-68
2022/08/20 02:31:45;;;;;;;1.85;1.80;;;;;;;17.34;100.00;100189.35;1757039;81;21042;-68
2022/08/20 02:34:13;;;;;;;3.77;2.77;;;;;;;17.33;100.00;100181.81;1755897;81;21038;-67
2022/08/20 02:36:42;;;;;;;2.08;1.98;;;;;;;17.34;100.00;100177.23;1723043;82;21438;-67
2022/08/20 02:39:11;;;;;;;2.08;1.40;;;;;;;17.34;100.00;100174.00;1753468;81;20978;-68
2022/08/20 02:41:38;;;;;;;2.00;1.90;;;;;;;17.22;100.00;100155.71;1757989;81;21090;-68
2022/08/20 02:44:06;;;;;;;3.08;2.87;;;;;;;17.32;100.00;100178.27;1756946;80;21034;-69
2022/08/20 02:46:34;;;;;;;1.90;1.80;;;;;;;17.32;100.00;100182.85;1733653;80;21101;-69
2022/08/20 02:49:00;;;;;;;2.05;1.95;;;;;;;17.34;100.00;100174.53;1746764;81;21096;-68
2022/08/20 02:51:27;;;;;;;5.40;2.10;;;;;;;17.38;100.00;100179.73;1754385;81;21478;-69
2022/08/20 02:53:53;;;;;;;3.20;2.00;;;;;;;17.35;100.00;100170.27;1747666;81;20994;-67
2022/08/20 02:56:19;;;;;;;1.98;1.67;;;;;;;17.29;100.00;100168.50;1735785;82;21021;-68
2022/08/20 02:58:45;;;;;;;2.72;2.02;;;;;;;17.23;100.00;100174.84;1714462;81;21027;-68
2022/08/20 03:01:16;;;;;;;2.98;2.62;;;;;;;17.17;100.00;100176.60;1672180;82;21555;-68
2022/08/20 03:03:44;;;;;;;5.45;2.02;;;;;;;17.12;100.00;100176.48;1678879;84;21072;-67
2022/08/20 03:06:13;;;;;;;2.83;2.35;;;;;;;17.09;100.00;100176.97;1659470;84;21059;-68
2022/08/20 03:08:41;;;;;;;1.77;1.65;;;;;;;17.06;100.00;100181.47;1667763;84;21045;-68
2022/08/20 03:11:08;;;;;;;2.35;2.25;;;;;;;17.03;100.00;100184.65;1666930;84;21021;-67
2022/08/20 03:13:36;;;;;;;2.45;2.27;;;;;;;17.02;100.00;100181.65;1688736;83;21184;-68
2022/08/20 03:16:03;;;;;;;2.12;2.02;;;;;;;17.01;100.00;100185.38;1661522;86;21144;-69
2022/08/20 03:18:35;;;;;;;2.70;2.60;;;;;;;17.00;100.00;100187.80;1690184;83;21069;-68
2022/08/20 03:21:04;;;;;;;2.72;2.52;;;;;;;17.01;100.00;100190.27;1703731;84;21578;-69
2022/08/20 03:23:31;;;;;;;2.67;2.58;;;;;;;17.04;100.00;100194.34;1676085;82;21551;-67
2022/08/20 03:25:58;;;;;;;3.58;3.27;;;;;;;17.08;100.00;100192.31;1671636;85;21002;-67
2022/08/20 03:31:33;;;;;;;3.10;2.77;;;;;;;17.18;100.00;100195.76;1830332;76;22933;-68
2022/08/20 03:33:59;;;;;;;;;;;;;;;17.17;100.00;100198.69;1770677;77;20943;-68
2022/08/20 03:36:27;;;;;;;2.75;2.55;;;;;;;17.16;100.00;100200.56;1736959;80;20329;-68
2022/08/20 03:38:56;;;;;;;2.62;2.52;;;;;;;17.11;100.00;100200.44;1789900;79;21046;-68
2022/08/20 03:41:23;;;;;;;3.37;3.17;;;;;;;17.11;100.00;100190.48;1792641;78;21040;-68
2022/08/20 03:43:49;;;;;;;3.40;3.10;;;;;;;17.10;100.00;100184.81;1787176;79;21515;-68
2022/08/20 03:46:16;;;;;;;2.90;2.80;;;;;;;17.11;100.00;100182.94;1781398;79;21141;-67
2022/08/20 03:48:42;;;;;;;2.92;2.30;;;;;;;17.10;100.00;100185.32;1738507;79;21137;-68
2022/08/20 03:51:08;;;;;;;2.02;1.92;;;;;;;17.13;100.00;100185.67;1737152;82;21181;-67
2022/08/20 03:53:35;;;;;;;2.65;2.55;;;;;;;17.19;100.00;100179.87;1732100;82;21524;-68
2022/08/20 03:56:04;;;;;;;;;;;;;;;17.22;100.00;100178.06;1729481;81;21097;-69
2022/08/20 03:58:33;;;;;;;2.65;2.55;;;;;;;17.25;100.00;100176.26;1696798;81;20126;-67
2022/08/20 04:00:59;;;;;;;3.10;2.58;;;;;;;17.25;100.00;100177.61;1688602;83;21061;-68
2022/08/20 04:03:26;;;;;;;3.12;2.92;;;;;;;17.29;100.00;100177.42;1690294;84;21571;-67
2022/08/20 04:05:52;;;;;;;2.75;2.62;;;;;;;17.35;100.00;100171.61;1669998;83;21113;-67
2022/08/20 04:08:25;;;;;;;3.40;2.58;;;;;;;17.38;100.00;100169.77;1670224;84;20958;-68
2022/08/20 04:10:53;;;;;;;2.15;2.05;;;;;;;17.47;100.00;100168.89;1667606;84;21025;-69
2022/08/20 04:13:21;;;;;;;2.70;2.60;;;;;;;17.59;100.00;100172.89;1684100;83;21095;-67
2022/08/20 04:15:48;;;;;;;2.75;2.55;;;;;;;17.63;100.00;100174.05;1687860;83;21127;-69
2022/08/20 04:18:19;;;;;;;3.20;3.00;;;;;;;17.65;100.00;100170.07;1686159;83;20984;-70
2022/08/20 04:20:46;;;;;;;3.20;3.00;;;;;;;17.66;100.00;100174.39;1696676;83;21099;-67
2022/08/20 04:23:13;;;;;;;3.72;3.35;;;;;;;17.67;100.00;100178.73;1680296;83;20995;-68
2022/08/20 04:25:43;;;;;;;2.98;2.77;;;;;;;17.72;100.00;100182.05;1668915;84;21022;-66
2022/08/20 04:28:27;;;;;;;6.45;3.37;;;;;;;17.74;100.00;100183.16;1700609;82;21137;-69
2022/08/20 04:30:56;;;;;;;4.50;4.12;;;;;;;17.78;100.00;100179.77;1701202;82;21011;-68
2022/08/20 04:33:24;;;;;;;3.67;3.47;;;;;;;17.83;100.00;100180.38;1713418;81;21002;-69
2022/08/20 04:35:52;;;;;;;3.85;3.50;;;;;;;17.87;100.00;100178.86;1731562;81;21069;-69
2022/08/20 04:38:21;;;;;;;4.20;3.80;;;;;;;17.92;100.00;100181.66;1718595;82;21046;-66
2022/08/20 04:40:57;;;;;;;3.75;3.55;;;;;;;17.95;99.73;100183.89;1717918;82;21073;-68
2022/08/20 04:43:34;;;;;;;3.98;3.67;;;;;;;17.94;99.67;100184.94;1721248;82;21157;-70
2022/08/20 04:46:05;;;;;;;4.50;4.20;;;;;;;17.96;99.62;100182.01;1738782;81;21536;-68
2022/08/20 04:48:32;;;;;;;5.58;4.92;;;;;;;17.97;99.80;100176.37;1738152;81;21152;-68
2022/08/20 04:51:00;;;;;;;4.65;4.35;;;;;;;18.02;99.83;100175.64;1731554;81;21548;-68
2022/08/20 04:53:28;;;;;;;4.50;4.20;;;;;;;18.08;99.74;100168.77;1694409;81;21129;-69
2022/08/20 04:55:58;;;;;;;4.90;4.40;;;;;;;18.13;99.36;100161.28;1698754;81;21092;-68
2022/08/20 04:58:32;;;;;;;4.90;4.28;;;;;;;18.16;99.08;100161.31;1732454;81;21652;-68
2022/08/20 05:01:06;;;;;;;4.58;4.33;;;;;;;18.17;98.81;100169.17;1746088;80;21077;-68
2022/08/20 05:03:36;;;;;;;3.90;3.67;;;;;;;18.20;99.17;100162.49;1764077;80;21005;-69
2022/08/20 05:06:05;;;;;;;3.37;3.17;;;;;;;18.25;98.60;100166.60;1711221;80;21134;-67
2022/08/20 05:08:34;;;;;;;3.95;3.45;;;;;;;18.29;98.44;100163.73;1703878;82;20968;-70
2022/08/20 05:11:01;;;;;;;3.10;2.98;;;;;;;18.35;98.51;100162.75;1700707;83;21011;-67
2022/08/20 05:13:28;;;;;;;5.00;3.42;;;;;;;18.46;98.21;100162.40;1698285;82;21089;-67
2022/08/20 05:15:55;;;;;;;3.00;2.70;;;;;;;18.56;97.69;100154.99;1705184;83;21038;-70
2022/08/20 05:18:25;;;;;;;3.58;3.27;;;;;;;18.67;97.48;100156.79;1699672;83;21052;-69
2022/08/20 05:20:52;;;;;;;3.58;2.90;;;;;;;18.80;96.33;100156.48;1690879;82;21597;-70
2022/08/20 05:23:20;;;;;;;3.50;3.20;;;;;;;18.90;95.15;100152.30;1710715;82;20981;-69
2022/08/20 05:25:51;;;;;;;2.60;2.50;;;;;;;18.98;95.14;100145.92;1663412;85;21035;-69
2022/08/20 05:28:23;;;;;;;2.40;2.20;;;;;;;19.11;94.24;100140.70;1657709;84;21043;-69
2022/08/20 05:30:51;;;;;;;2.55;2.35;;;;;;;19.23;93.29;100138.71;1698974;82;21193;-67
2022/08/20 05:33:21;;;;;;;3.47;2.27;;;;;;;19.37;92.55;100135.64;1651623;84;21521;-72
2022/08/20 05:35:51;;;;;;;3.15;2.87;;;;;;;19.49;91.62;100134.15;1655370;85;21118;-69
2022/08/20 05:38:23;;;;;;;1.72;1.62;;;;;;;19.61;90.83;100131.59;1652807;84;21089;-68
2022/08/20 05:40:49;;;;;;;1.52;1.40;;;;;;;19.81;90.72;100127.50;1680839;84;21011;-69
2022/08/20 05:43:16;;;;;;;2.22;2.12;;;;;;;20.07;89.68;100130.47;1668822;80;21105;-69
2022/08/20 05:45:45;;;;;;;2.05;1.95;;;;;;;20.46;88.71;100134.33;1665860;83;21507;-69
2022/08/20 05:48:18;;;;;;;5.17;2.00;;;;;;;20.93;87.23;100124.92;1650120;84;21129;-69
2022/08/20 05:50:48;;;;;;;2.00;1.70;;;;;;;21.28;81.95;100133.48;1724689;81;21612;-71
2022/08/20 05:53:16;;;;;;;1.10;1.10;;;;;;;21.52;81.14;100131.98;1738568;81;20993;-68
2022/08/20 05:55:44;;;;;;;2.30;1.85;;;;;;;21.71;79.70;100136.93;1734417;81;20965;-69
2022/08/20 05:58:23;;;;;;;1.80;1.70;;;;;;;21.87;78.55;100126.39;1667203;84;21105;-75
2022/08/20 06:00:52;;;;;;;1.70;1.60;;;;;;;21.99;77.50;100130.75;1725891;81;21041;-70
2022/08/20 06:06:05;;;;;;;2.27;1.32;;;;;;;22.19;75.55;100125.34;1678501;81;21663;-69
2022/08/20 06:08:32;;;;;;;2.42;1.27;;;;;;;22.49;75.91;100125.08;1678449;84;21606;-68
2022/08/20 06:10:59;;;;;;;1.12;0.90;;;;;;;23.01;74.82;100122.55;1691586;84;21081;-69
2022/08/20 06:13:27;;;;;;;3.55;0.93;;;;;;;23.79;71.68;100123.07;1713024;81;21137;-69
2022/08/20 06:15:56;;;;;;;1.37;0.85;;;;;;;24.34;68.44;100129.78;1691796;82;21053;-67
2022/08/20 06:18:23;;;;;;;4.67;1.00;;;;;;;24.58;64.77;100123.03;1702517;82;21105;-69
2022/08/20 06:20:49;;;;;;;1.02;0.80;;;;;;;24.73;65.28;100126.97;1737631;82;21097;-71
2022/08/20 06:23:17;;;;;;;0.80;0.53;;;;;;;24.95;64.60;100129.20;1751495;80;21553;-67
2022/08/20 06:25:44;;;;;;;1.02;0.70;;;;;;;25.30;62.88;100131.82;1762108;81;21105;-68
2022/08/20 06:28:12;;;;;;;0.13;0.13;;;;;;;25.38;61.36;100136.09;1671653;81;21657;-69
2022/08/20 06:30:39;;;;;;;0.68;0.42;;;;;;;24.98;60.80;100136.81;1636479;86;21098;-75
2022/08/20 06:33:05;;;;;;;0.30;0.20;;;;;;;24.73;62.19;100132.97;1647688;86;21069;-68
2022/08/20 06:35:32;;;;;;;2.25;0.20;;;;;;;24.64;62.03;100126.80;1709351;81;21129;-68
2022/08/20 06:37:59;;;;;;;0.50;0.30;;;;;;;24.52;61.91;100136.45;1695613;83;20978;-68
2022/08/20 06:40:28;;;;;;;0.40;0.30;;;;;;;24.27;62.67;100137.70;1707896;83;21554;-69
2022/08/20 06:42:56;;;;;;;0.72;0.70;;;;;;;23.98;64.34;100136.30;1710092;82;21089;-70
2022/08/20 06:45:26;;;;;;;0.82;0.33;;;;;;;23.84;65.21;100132.02;1701670;82;21486;-69
2022/08/20 06:47:56;;;;;;;1.42;0.30;;;;;;;23.83;64.77;100144.02;1660287;84;21097;-68
2022/08/20 06:50:28;;;;;;;0.30;0.23;;;;;;;23.59;65.52;100145.20;1665146;82;21142;-68
2022/08/20 06:52:55;;;;;;;4.53;0.40;;;;;;;23.21;67.10;100148.89;1663583;84;21032;-69
2022/08/20 06:55:23;;;;;;;0.30;0.30;;;;;;;22.78;68.45;100146.26;1691131;82;21104;-71
2022/08/20 06:58:04;;;;;;;0.42;0.40;;;;;;;22.48;69.38;100146.55;1672776;84;21073;-69
2022/08/20 07:00:32;;;;;;;0.40;0.40;;;;;;;22.18;70.74;100141.91;1691258;82;21009;-73
2022/08/20 07:03:00;;;;;;;0.60;0.40;;;;;;;21.88;72.43;100148.36;1681403;84;21038;-70
2022/08/20 07:05:29;;;;;;;1.77;0.50;;;;;;;21.69;72.97;100148.04;1681376;84;21145;-68
2022/08/20 07:07:55;;;;;;;1.57;0.40;;;;;;;21.63;73.67;100140.17;1697308;83;21494;-69
2022/08/20 07:10:24;;;;;;;0.60;0.60;;;;;;;21.66;74.11;100149.11;1668061;84;21153;-73
2022/08/20 07:12:50;;;;;;;1.57;1.07;;;;;;;21.62;74.22;100144.76;1694104;82;21475;-69
2022/08/20 07:15:21;;;;;;;0.82;0.75;;;;;;;21.53;75.28;100145.83;1746223;81;21715;-68
2022/08/20 07:17:51;;;;;;;1.27;0.85;;;;;;;21.49;75.80;100147.97;1725218;82;21094;-70
2022/08/20 07:20:19;;;;;;;0.82;0.50;;;;;;;21.43;75.50;100151.17;1762345;80;21022;-74
2022/08/20 07:22:47;;;;;;;0.40;0.30;;;;;;;21.41;75.80;100156.59;1662826;82;21016;-70
2022/08/20 07:25:18;;;;;;;4.22;0.70;;;;;;;21.41;75.67;100154.69;1654694;87;21027;-68
2022/08/20 07:27:46;;;;;;;0.53;0.50;;;;;;;21.48;75.39;100153.13;1658932;86;20996;-68
2022/08/20 07:33:02;;;;;;;0.53;0.40;;;;;;;21.61;74.71;100155.34;1756416;82;21087;-68
2022/08/20 07:35:29;;;;;;;0.57;0.35;;;;;;;21.71;74.52;100141.00;1707987;82;21061;-70
2022/08/20 07:37:55;;;;;;;1.35;0.50;;;;;;;21.84;74.19;100142.39;1702462;84;21021;-68
2022/08/20 07:40:26;;;;;;;0.93;0.40;;;;;;;21.94;74.14;100139.16;1717722;83;21000;-69
2022/08/20 07:42:54;;;;;;;0.30;0.30;;;;;;;22.13;73.95;100138.63;1750778;80;21175;-70
2022/08/20 07:45:22;;;;;;;0.70;0.70;;;;;;;22.27;72.40;100137.59;1740552;79;20990;-69
2022/08/20 07:47:51;;;;;;;0.65;0.65;;;;;;;22.31;71.97;100144.91;1741417;81;21083;-68
2022/08/20 07:50:22;;;;;;;0.75;0.72;;;;;;;22.33;71.73;100148.17;1675980;81;21113;-72
2022/08/20 07:52:52;;;;;;;1.32;0.40;;;;;;;22.40;71.92;100143.03;1655550;86;21057;-69
2022/08/20 07:55:20;;;;;;;0.50;0.50;;;;;;;22.55;71.55;100138.95;1652618;83;21121;-69
2022/08/20 07:57:49;;;;;;;0.20;0.20;;;;;;;22.75;70.57;100132.66;1644267;82;21081;-71
2022/08/20 08:00:19;;;;;;;1.85;0.33;;;;;;;22.93;69.73;100132.64;1646487;85;21016;-70
2022/08/20 08:02:45;;;;;;;2.15;0.30;;;;;;;23.06;67.74;100129.92;1680096;83;21126;-70
2022/08/20 08:05:12;;;;;;;0.40;0.30;;;;;;;23.15;67.64;100129.63;1697437;83;21304;-70
2022/08/20 08:07:40;;;;;;;1.02;0.20;;;;;;;23.23;66.82;100130.39;1701301;83;22220;-69
2022/08/20 08:10:11;;;;;;;0.30;0.30;;;;;;;23.29;66.09;100120.31;1699581;83;21159;-70
2022/08/20 08:12:44;;;;;;;0.50;0.30;;;;;;;23.33;66.40;100120.83;1709928;82;21107;-70
2022/08/20 08:15:20;;;;;;;0.30;0.30;;;;;;;23.30;67.04;100116.48;1659157;82;21082;-72
2022/08/20 08:17:49;;;;;;;0.47;0.23;;;;;;;23.34;67.07;100120.30;1654011;85;21014;-70
2022/08/20 08:20:16;;;;;;;1.22;0.25;;;;;;;23.36;66.80;100114.03;1653769;85;21023;-69
2022/08/20 08:22:44;;;;;;;1.57;0.23;;;;;;;23.37;66.33;100117.00;1650847;82;21649;-73
2022/08/20 08:25:13;;;;;;;0.40;0.40;;;;;;;23.33;66.33;100116.75;1635729;87;21094;-70
2022/08/20 08:27:40;;;;;;;0.40;0.28;;;;;;;23.28;65.98;100114.07;1643175;87;21169;-70
2022/08/20 08:30:09;;;;;;;0.28;0.20;;;;;;;23.26;65.84;100114.06;1637792;84;21105;-69
2022/08/20 08:33:26;;;;;;;0.20;0.13;;;;;;;23.23;66.15;100108.64;1642161;85;21557;-69
2022/08/20 08:35:07;;;;;;;0.40;0.40;;;;;;;23.24;66.29;100103.45;1691883;82;21078;-68
2022/08/20 08:37:36;;;;;;;0.45;0.30;;;;;;;23.30;65.73;100102.36;1711940;82;21046;-70
2022/08/20 08:40:04;;;;;;;0.53;0.25;;;;;;;23.36;64.93;100109.12;1718490;82;21485;-68
2022/08/20 08:42:49;;;;;;;0.45;0.30;;;;;;;23.36;64.40;100108.59;1706927;82;21388;-70
2022/08/20 08:45:17;;;;;;;0.65;0.33;;;;;;;23.32;64.79;100104.81;1691757;82;21433;-71
2022/08/20 08:47:44;;;;;;;0.95;0.30;;;;;;;23.28;65.50;100102.36;1717328;81;21104;-69
2022/08/20 08:50:21;;;;;;;0.30;0.20;;;;;;;23.30;65.22;100103.73;1715145;83;20957;-70
2022/08/20 08:52:52;;;;;;;0.40;0.20;;;;;;;23.29;65.62;100102.64;1708224;83;21044;-70
2022/08/20 08:55:21;;;;;;;0.40;0.40;;;;;;;23.30;65.08;100109.16;1719644;81;21123;-70
2022/08/20 08:57:48;;;;;;;0.60;0.30;;;;;;;23.30;65.06;100101.00;1658093;84;21645;-69
2022/08/20 09:00:20;;;;;;;0.40;0.30;;;;;;;23.25;65.47;100096.14;1647190;86;21070;-70
2022/08/20 09:03:09;;;;;;;1.45;0.35;;;;;;;23.19;65.93;100097.23;1646657;83;21145;-71
2022/08/20 09:05:51;;;;;;;1.65;0.30;;;;;;;23.18;66.48;100097.78;1672855;85;21038;-72
2022/08/20 09:08:23;;;;;;;0.30;0.30;;;;;;;23.24;66.45;100092.58;1673386;83;21101;-70
2022/08/20 09:10:49;;;;;;;0.50;0.20;;;;;;;23.28;66.15;100099.64;1676113;84;21085;-70
2022/08/20 09:13:15;;;;;;;0.45;0.33;;;;;;;23.34;65.67;100108.06;1684685;84;21081;-69
2022/08/20 09:15:42;;;;;;;2.85;0.33;;;;;;;23.42;65.28;100111.55;1672742;84;21165;-71
2022/08/20 09:18:08;;;;;;;0.53;0.33;;;;;;;23.48;65.79;100109.06;1703639;84;21065;-75
2022/08/20 09:20:35;;;;;;;0.20;0.20;;;;;;;23.59;65.26;100102.22;1700840;83;21044;-69
2022/08/20 09:23:06;;;;;;;0.30;0.30;;;;;;;23.68;64.89;100100.55;1731629;81;20958;-68
2022/08/20 09:25:32;;;;;;;0.30;0.30;;;;;;;23.77;64.80;100102.94;1758612;80;22161;-68
2022/08/20 09:27:58;;;;;;;0.40;0.20;;;;;;;23.83;64.35;100099.11;1733811;81;21187;-68
2022/08/20 09:30:24;;;;;;;0.50;0.25;;;;;;;23.86;63.39;100102.61;1739502;80;21046;-69
2022/08/20 09:32:51;;;;;;;0.50;0.40;;;;;;;23.80;63.82;100109.19;1770303;80;21065;-73
2022/08/20 09:35:17;;;;;;;1.77;0.20;;;;;;;23.76;64.40;100109.46;1806639;78;21001;-70
2022/08/20 09:37:45;;;;;;;0.47;0.30;;;;;;;23.78;64.31;100101.02;1781987;78;21151;-69
2022/08/20 09:40:12;;;;;;;0.42;0.20;;;;;;;23.81;63.82;100108.11;1729959;81;21052;-70
2022/08/20 09:42:38;;;;;;;0.30;0.30;;;;;;;23.85;63.48;100117.88;1722278;82;21001;-69
2022/08/20 09:45:06;;;;;;;0.80;0.40;;;;;;;23.87;62.71;100113.77;1652824;82;20993;-69
2022/08/20 09:47:34;;;;;;;0.20;0.20;;;;;;;23.77;63.00;100111.09;1650153;85;21089;-68
2022/08/20 09:50:00;;;;;;;0.20;0.20;;;;;;;23.65;63.42;100113.34;1681545;80;21238;-69
2022/08/20 09:52:38;;;;;;;0.57;0.40;;;;;;;23.65;63.84;100106.53;1673156;83;21008;-70
2022/08/20 09:55:12;;;;;;;0.90;0.30;;;;;;;23.69;64.01;100102.95;1687881;82;22382;-71
2022/08/20 09:57:38;;;;;;;0.65;0.20;;;;;;;23.72;62.89;100107.04;1676550;84;20981;-67
2022/08/20 10:00:10;;;;;;;0.95;0.50;;;;;;;23.66;63.09;100108.17;1699240;83;21025;-68
2022/08/20 10:02:40;;;;;;;0.28;0.20;;;;;;;23.60;63.66;100110.63;1694925;82;21134;-68
2022/08/20 10:05:08;;;;;;;1.22;0.60;;;;;;;23.48;64.56;100114.50;1704827;84;21026;-70
2022/08/20 10:07:38;;;;;;;0.20;0.20;;;;;;;23.31;65.53;100112.13;1679884;84;21164;-68
2022/08/20 10:10:08;;;;;;;0.80;0.28;;;;;;;23.21;65.85;100109.47;1690970;84;21024;-72
2022/08/20 10:12:36;;;;;;;0.55;0.20;;;;;;;23.21;65.96;100107.31;1645470;84;21578;-70
2022/08/20 10:15:04;;;;;;;0.20;0.20;;;;;;;23.25;65.29;100109.73;1621637;86;21010;-71
2022/08/20 10:17:30;;;;;;;0.23;0.23;;;;;;;23.28;64.40;100114.07;1672928;83;21140;-68
2022/08/20 10:19:57;;;;;;;0.62;0.20;;;;;;;23.31;64.30;100123.56;1691877;83;21013;-68
2022/08/20 10:22:23;;;;;;;0.57;0.17;;;;;;;23.30;64.08;100121.92;1683982;83;21100;-71
2022/08/20 10:24:49;;;;;;;2.75;0.40;;;;;;;23.23;64.24;100124.16;1712301;83;21065;-70
2022/08/20 10:27:15;;;;;;;1.65;0.33;;;;;;;23.11;64.80;100117.12;1655971;83;21128;-71
2022/08/20 10:29:41;;;;;;;6.33;1.05;;;;;;;23.06;65.20;100119.05;1657484;84;21035;-68
2022/08/20 10:32:13;;;;;;;0.40;0.30;;;;;;;22.78;65.00;100072.90;1690770;83;21092;-71
2022/08/20 10:34:41;;;;;;;0.20;0.20;;;;;;;23.03;65.22;100115.48;1667949;80;21549;-69
2022/08/20 10:37:11;;;;;;;0.35;0.20;;;;;;;23.06;65.51;100117.13;1649491;84;20971;-77
2022/08/20 10:39:37;;;;;;;0.90;0.30;;;;;;;23.11;65.48;100113.05;1652541;84;21118;-69
2022/08/20 10:42:04;;;;;;;0.42;0.20;;;;;;;23.16;65.55;100115.48;1692753;83;21657;-69
2022/08/20 10:44:30;;;;;;;0.28;0.20;;;;;;;23.17;65.55;100110.28;1700522;83;21034;-70
2022/08/20 10:46:56;;;;;;;0.60;0.35;;;;;;;23.18;65.70;100112.73;1722510;82;21089;-69
2022/08/20 10:49:22;;;;;;;0.30;0.20;;;;;;;23.21;66.00;100111.38;1684997;81;21083;-71
2022/08/20 10:51:49;;;;;;;1.98;0.45;;;;;;;23.23;66.08;100109.20;1718691;82;21070;-71
2022/08/20 10:54:15;;;;;;;1.95;0.40;;;;;;;23.27;66.03;100120.59;1679281;84;21032;-68
2022/08/20 10:56:42;;;;;;;0.30;0.30;;;;;;;23.31;65.88;100114.05;1722438;82;22273;-70
2022/08/20 10:59:08;;;;;;;0.30;0.20;;;;;;;23.35;65.17;100120.55;1733390;81;21131;-71
2022/08/20 11:01:34;;;;;;;0.42;0.42;;;;;;;23.42;65.14;100112.11;1723989;82;20994;-68
2022/08/20 11:04:02;;;;;;;0.90;0.40;;;;;;;23.51;65.02;100109.88;1722954;82;21109;-70
2022/08/20 11:06:28;;;;;;;1.05;0.55;;;;;;;23.63;65.07;100102.73;1719963;80;21096;-71
2022/08/20 11:08:58;;;;;;;0.55;0.33;;;;;;;23.69;63.66;100102.16;1706615;83;21113;-69
2022/08/20 11:11:24;;;;;;;0.65;0.30;;;;;;;23.69;63.53;100099.43;1708879;83;21526;-75
2022/08/20 11:13:50;;;;;;;2.50;0.30;;;;;;;23.73;64.10;100096.96;1734014;81;21105;-71
2022/08/20 11:16:17;;;;;;;0.57;0.30;;;;;;;23.70;65.18;100095.07;1726684;82;21065;-72
2022/08/20 11:18:43;;;;;;;2.35;0.55;;;;;;;23.71;65.58;100092.63;1730006;81;21494;-69
2022/08/20 11:21:09;;;;;;;0.30;0.30;;;;;;;23.78;65.41;100096.94;1705602;82;21101;-70
2022/08/20 11:23:36;;;;;;;0.90;0.40;;;;;;;23.82;64.81;100089.30;1718031;81;21100;-69
2022/08/20 11:26:03;;;;;;;1.77;0.30;;;;;;;23.88;65.08;100084.11;1686164;83;21607;-68
2022/08/20 11:28:32;;;;;;;0.33;0.30;;;;;;;23.94;65.20;100088.97;1690912;82;21154;-70
2022/08/20 11:31:00;;;;;;;1.10;0.40;;;;;;;23.97;65.12;100088.94;1689981;84;21069;-68
2022/08/20 11:33:27;;;;;;;0.40;0.37;;;;;;;23.97;64.29;100090.30;1726149;80;21007;-72
2022/08/20 11:35:53;;;;;;;0.60;0.60;;;;;;;23.91;64.12;100082.72;1693095;83;21193;-71
2022/08/20 11:38:20;;;;;;;0.35;0.35;;;;;;;23.81;64.86;100075.45;1713689;83;21020;-71
2022/08/20 11:40:46;;;;;;;0.82;0.42;;;;;;;23.79;64.86;100069.48;1703342;83;20974;-72